EIWF

Waterford Airport

Waterford, Ireland
METAR EIWF 151300Z 35012KT 320V030 CAVOK 07/02 Q1010
Observed Flight Rules
Dec-15 @ 13:00 UTC (49 minutes ago) Visual Flight Rules
Wind Visibility Clouds
350° at 12 knots 10,000+ meters
  • Clear skies
Temperatures Readings
Current 7°C / 45°F
Dewpoint 2°C / 36°F
Humidity 71%
Altimeter 29.82" Hg
Pressure 1010 hPa
Elevation 36
METAR EIWF 151300Z 35012KT 320V030 CAVOK 07/02 Q1010
Observed Flight Rules
Dec-15 @ 13:00 UTC
(49 minutes ago)
VFR
Wind Visibility
350° at 12 knots 10,000+ meters
Clouds
  • Clear skies
Temperature Dewpoint
7°C / 45°F 2°C / 36°F
Humidity Altimeter Pressure
71% 29.82" Hg 1010 hPa